sensor_id;sensor_type;location;lat;lon;timestamp;P1;P4;P2;P0;N10;N4;N25;N1;N05;TS
64840;SPS30;51307;52.162;7.560;2022-09-17T00:01:13;5.07;4.48;3.30;1.76;14.29;14.23;13.94;12.35;8.48;0.97
64840;SPS30;51307;52.162;7.560;2022-09-17T00:03:41;5.95;5.25;3.85;2.02;16.39;16.32;15.97;14.08;9.57;0.99
64840;SPS30;51307;52.162;7.560;2022-09-17T00:06:09;5.63;4.96;3.62;1.87;15.21;15.14;14.81;13.00;8.75;1.00
64840;SPS30;51307;52.162;7.560;2022-09-17T00:08:37;5.22;4.60;3.35;1.71;13.94;13.88;13.57;11.88;7.96;1.00
64840;SPS30;51307;52.162;7.560;2022-09-17T00:11:08;5.44;4.79;3.48;1.78;14.49;14.42;14.10;12.34;8.26;1.01
64840;SPS30;51307;52.162;7.560;2022-09-17T00:13:36;5.12;4.51;3.29;1.69;13.75;13.68;13.38;11.73;7.88;1.01
64840;SPS30;51307;52.162;7.560;2022-09-17T00:16:02;5.18;4.57;3.36;1.76;14.34;14.28;13.98;12.34;8.41;0.99
64840;SPS30;51307;52.162;7.560;2022-09-17T00:18:28;4.87;4.30;3.17;1.69;13.71;13.65;13.37;11.84;8.13;0.99
64840;SPS30;51307;52.162;7.560;2022-09-17T00:20:54;5.34;4.71;3.46;1.81;14.74;14.68;14.37;12.67;8.62;0.99
64840;SPS30;51307;52.162;7.560;2022-09-17T00:23:20;5.71;5.04;3.70;1.95;15.83;15.76;15.43;13.63;9.29;0.98
64840;SPS30;51307;52.162;7.560;2022-09-17T00:25:45;5.55;4.89;3.58;1.85;15.07;15.00;14.68;12.90;8.71;0.99
64840;SPS30;51307;52.162;7.560;2022-09-17T00:28:11;5.63;4.96;3.61;1.84;14.98;14.91;14.58;12.76;8.53;1.00
64840;SPS30;51307;52.162;7.560;2022-09-17T00:30:42;5.70;5.02;3.67;1.90;15.44;15.37;15.03;13.21;8.91;1.00
64840;SPS30;51307;52.162;7.560;2022-09-17T00:33:10;5.64;4.97;3.63;1.87;15.22;15.15;14.81;13.00;8.75;0.99
64840;SPS30;51307;52.162;7.560;2022-09-17T00:35:37;5.13;4.53;3.32;1.74;14.17;14.11;13.81;12.18;8.29;0.96
64840;SPS30;51307;52.162;7.560;2022-09-17T00:38:03;5.10;4.51;3.33;1.78;14.42;14.36;14.07;12.47;8.57;0.97
64840;SPS30;51307;52.162;7.560;2022-09-17T00:40:29;5.19;4.58;3.38;1.79;14.58;14.51;14.22;12.59;8.63;0.96
64840;SPS30;51307;52.162;7.560;2022-09-17T00:42:54;5.24;4.64;3.45;1.87;15.16;15.10;14.80;13.18;9.15;0.94
64840;SPS30;51307;52.162;7.560;2022-09-17T00:45:20;4.84;4.30;3.24;1.82;14.79;14.73;14.47;13.02;9.25;0.92
64840;SPS30;51307;52.162;7.560;2022-09-17T00:47:57;5.21;4.65;3.52;2.02;16.34;16.28;16.00;14.46;10.37;0.92
64840;SPS30;51307;52.162;7.560;2022-09-17T00:55:45;4.79;4.27;3.23;1.85;14.96;14.91;14.65;13.24;9.48;0.93
64840;SPS30;51307;52.162;7.560;2022-09-17T00:58:19;5.70;5.06;3.78;2.09;16.96;16.90;16.58;14.84;10.43;0.94
64840;SPS30;51307;52.162;7.560;2022-09-17T01:00:48;5.54;4.91;3.64;1.97;16.01;15.95;15.63;13.92;9.66;0.96
64840;SPS30;51307;52.162;7.560;2022-09-17T01:03:13;5.76;5.07;3.70;1.90;15.44;15.37;15.03;13.18;8.84;1.01
64840;SPS30;51307;52.162;7.560;2022-09-17T01:16:57;6.09;5.41;4.04;2.22;18.03;17.96;17.62;15.76;11.05;0.96
64840;SPS30;51307;52.162;7.560;2022-09-17T01:20:02;7.09;6.34;4.83;2.81;22.79;22.71;22.33;20.27;14.66;0.91
64840;SPS30;51307;52.162;7.560;2022-09-17T01:31:20;4.79;4.34;3.45;2.23;17.95;17.91;17.68;16.45;12.47;0.85
64840;SPS30;51307;52.162;7.560;2022-09-17T01:39:24;5.58;4.95;3.70;2.04;16.53;16.46;16.15;14.45;10.14;0.94
64840;SPS30;51307;52.162;7.560;2022-09-17T01:43:00;6.58;5.80;4.24;2.20;17.88;17.80;17.42;15.31;10.34;0.98
64840;SPS30;51307;52.162;7.560;2022-09-17T01:51:09;6.62;5.84;4.30;2.26;18.39;18.31;17.92;15.83;10.80;0.97
64840;SPS30;51307;52.162;7.560;2022-09-17T01:53:43;6.35;5.59;4.08;2.10;17.12;17.04;16.67;14.63;9.84;1.00
64840;SPS30;51307;52.162;7.560;2022-09-17T01:56:24;6.86;6.02;4.36;2.19;17.86;17.77;17.36;15.12;10.00;1.01
64840;SPS30;51307;52.162;7.560;2022-09-17T01:58:58;6.38;5.61;4.06;2.05;16.67;16.59;16.21;14.13;9.36;1.00
64840;SPS30;51307;52.162;7.560;2022-09-17T02:01:49;6.98;6.13;4.43;2.22;18.09;18.00;17.58;15.29;10.08;1.00
64840;SPS30;51307;52.162;7.560;2022-09-17T02:04:25;6.89;6.06;4.42;2.26;18.39;18.31;17.90;15.67;10.49;0.99
64840;SPS30;51307;52.162;7.560;2022-09-17T02:06:58;6.07;5.35;3.92;2.04;16.58;16.51;16.15;14.22;9.63;0.97
64840;SPS30;51307;52.162;7.560;2022-09-17T02:09:35;6.40;5.65;4.15;2.17;17.67;17.59;17.22;15.19;10.33;0.96
64840;SPS30;51307;52.162;7.560;2022-09-17T02:12:13;6.74;5.94;4.35;2.27;18.45;18.37;17.97;15.82;10.72;0.98
64840;SPS30;51307;52.162;7.560;2022-09-17T02:14:46;6.16;5.43;3.98;2.07;16.84;16.76;16.40;14.44;9.78;0.98
64840;SPS30;51307;52.162;7.560;2022-09-17T02:20:17;6.69;5.89;4.30;2.21;17.96;17.87;17.48;15.32;10.29;0.98
64840;SPS30;51307;52.162;7.560;2022-09-17T02:22:54;6.24;5.51;4.06;2.15;17.49;17.41;17.05;15.08;10.33;0.97
64840;SPS30;51307;52.162;7.560;2022-09-17T02:25:27;6.23;5.51;4.07;2.17;17.65;17.57;17.21;15.26;10.51;0.95
64840;SPS30;51307;52.162;7.560;2022-09-17T02:28:05;7.20;6.35;4.65;2.42;19.69;19.60;19.18;16.88;11.43;0.97
64840;SPS30;51307;52.162;7.560;2022-09-17T02:30:41;6.68;5.87;4.26;2.15;17.53;17.44;17.04;14.87;9.87;0.99
64840;SPS30;51307;52.162;7.560;2022-09-17T02:33:08;6.96;6.09;4.36;2.12;17.27;17.18;16.76;14.43;9.30;1.04
64840;SPS30;51307;52.162;7.560;2022-09-17T02:35:38;8.54;7.47;5.35;2.58;21.07;20.96;20.43;17.57;11.28;1.04
64840;SPS30;51307;52.162;7.560;2022-09-17T02:38:04;9.43;8.30;6.02;3.05;24.86;24.74;24.18;21.11;14.04;1.01
64840;SPS30;51307;52.162;7.560;2022-09-17T02:40:32;7.91;6.96;5.08;2.61;21.23;21.13;20.66;18.12;12.16;1.00
64840;SPS30;51307;52.162;7.560;2022-09-17T02:43:09;6.33;5.60;4.15;2.23;18.10;18.03;17.67;15.69;10.85;0.97
64840;SPS30;51307;52.162;7.560;2022-09-17T02:45:51;6.44;5.69;4.19;2.22;18.03;17.95;17.58;15.55;10.65;0.97
64840;SPS30;51307;52.162;7.560;2022-09-17T02:54:28;7.05;6.19;4.47;2.24;18.23;18.14;17.72;15.41;10.15;0.99
64840;SPS30;51307;52.162;7.560;2022-09-17T03:00:31;6.68;5.90;4.37;2.34;19.01;18.93;18.55;16.46;11.36;0.98
64840;SPS30;51307;52.162;7.560;2022-09-17T03:05:22;6.81;6.00;4.39;2.27;18.45;18.36;17.96;15.78;10.64;0.99
64840;SPS30;51307;52.162;7.560;2022-09-17T03:07:49;7.92;6.99;5.13;2.70;21.96;21.86;21.40;18.90;12.88;0.97
64840;SPS30;51307;52.162;7.560;2022-09-17T03:10:15;7.10;6.26;4.58;2.38;19.37;19.28;18.86;16.60;11.23;0.98
64840;SPS30;51307;52.162;7.560;2022-09-17T03:12:41;7.46;6.56;4.77;2.43;19.80;19.70;19.26;16.85;11.25;1.00
64840;SPS30;51307;52.162;7.560;2022-09-17T03:15:07;7.22;6.35;4.63;2.37;19.25;19.16;18.73;16.40;10.97;1.01
64840;SPS30;51307;52.162;7.560;2022-09-17T03:17:34;6.65;5.86;4.27;2.19;17.83;17.75;17.35;15.21;10.20;1.00
64840;SPS30;51307;52.162;7.560;2022-09-17T03:19:59;6.48;5.72;4.20;2.20;17.91;17.83;17.46;15.40;10.48;0.99
64840;SPS30;51307;52.162;7.560;2022-09-17T03:22:25;6.76;5.98;4.42;2.37;19.23;19.15;18.76;16.65;11.48;0.97
64840;SPS30;51307;52.162;7.560;2022-09-17T03:24:51;6.47;5.71;4.20;2.21;17.94;17.86;17.48;15.43;10.52;0.96
64840;SPS30;51307;52.162;7.560;2022-09-17T03:27:16;7.48;6.58;4.79;2.46;19.98;19.88;19.44;17.03;11.41;0.98
64840;SPS30;51307;52.162;7.560;2022-09-17T03:29:42;6.61;5.81;4.21;2.13;17.30;17.22;16.83;14.67;9.73;1.00
64840;SPS30;51307;52.162;7.560;2022-09-17T03:32:07;7.05;6.20;4.50;2.27;18.52;18.43;18.01;15.71;10.43;1.01
64840;SPS30;51307;52.162;7.560;2022-09-17T03:34:33;6.72;5.92;4.31;2.20;17.91;17.83;17.43;15.26;10.21;1.01
64840;SPS30;51307;52.162;7.560;2022-09-17T03:36:58;7.63;6.72;4.88;2.49;20.23;20.13;19.68;17.21;11.48;1.00
64840;SPS30;51307;52.162;7.560;2022-09-17T03:39:24;6.98;6.14;4.47;2.29;18.59;18.51;18.09;15.84;10.59;0.99
64840;SPS30;51307;52.162;7.560;2022-09-17T03:41:49;7.94;6.97;5.03;2.50;20.38;20.28;19.80;17.19;11.27;1.01
64840;SPS30;51307;52.162;7.560;2022-09-17T03:44:15;7.99;7.00;5.04;2.47;20.17;20.06;19.58;16.93;11.00;1.03
64840;SPS30;51307;52.162;7.560;2022-09-17T03:46:43;6.99;6.15;4.49;2.31;18.77;18.68;18.27;16.02;10.76;1.00
64840;SPS30;51307;52.162;7.560;2022-09-17T03:49:09;7.22;6.37;4.67;2.45;19.89;19.80;19.38;17.09;11.61;0.99
64840;SPS30;51307;52.162;7.560;2022-09-17T03:51:34;6.53;5.75;4.20;2.17;17.62;17.54;17.15;15.06;10.13;1.00
64840;SPS30;51307;52.162;7.560;2022-09-17T03:54:00;6.22;5.48;3.99;2.04;16.60;16.52;16.15;14.14;9.46;1.01
64840;SPS30;51307;52.162;7.560;2022-09-17T03:56:27;6.90;6.05;4.33;2.10;17.16;17.07;16.64;14.34;9.24;1.05
64840;SPS30;51307;52.162;7.560;2022-09-17T03:58:55;7.21;6.32;4.56;2.27;18.47;18.38;17.95;15.58;10.21;1.01
64840;SPS30;51307;52.162;7.560;2022-09-17T04:01:22;6.96;6.10;4.40;2.18;17.72;17.63;17.21;14.91;9.75;1.02
64840;SPS30;51307;52.162;7.560;2022-09-17T04:03:47;7.78;6.81;4.88;2.37;19.29;19.19;18.71;16.11;10.37;1.03
64840;SPS30;51307;52.162;7.560;2022-09-17T04:06:13;7.01;6.15;4.43;2.19;17.86;17.78;17.35;15.04;9.83;1.03
64840;SPS30;51307;52.162;7.560;2022-09-17T04:08:38;7.21;6.31;4.50;2.16;17.65;17.56;17.11;14.69;9.38;1.06
64840;SPS30;51307;52.162;7.560;2022-09-17T04:11:04;7.60;6.66;4.78;2.33;19.01;18.91;18.44;15.91;10.29;1.04
64840;SPS30;51307;52.162;7.560;2022-09-17T04:13:29;7.68;6.71;4.77;2.27;18.51;18.41;17.93;15.34;9.71;1.06
64840;SPS30;51307;52.162;7.560;2022-09-17T04:15:55;7.64;6.67;4.74;2.25;18.33;18.23;17.75;15.17;9.57;1.05
64840;SPS30;51307;52.162;7.560;2022-09-17T04:18:20;7.63;6.69;4.82;2.38;19.41;19.32;18.85;16.34;10.67;1.01
64840;SPS30;51307;52.162;7.560;2022-09-17T04:20:46;6.81;5.99;4.34;2.19;17.84;17.76;17.35;15.13;10.03;0.98
64840;SPS30;51307;52.162;7.560;2022-09-17T04:23:11;7.20;6.32;4.57;2.29;18.67;18.58;18.14;15.79;10.41;0.99
64840;SPS30;51307;52.162;7.560;2022-09-17T04:25:37;6.75;5.91;4.24;2.06;16.83;16.74;16.33;14.08;9.09;1.02
64840;SPS30;51307;52.162;7.560;2022-09-17T04:28:03;7.20;6.31;4.52;2.20;17.94;17.85;17.40;15.00;9.68;1.01
64840;SPS30;51307;52.162;7.560;2022-09-17T04:30:28;7.86;6.89;4.95;2.43;19.81;19.71;19.23;16.62;10.80;1.01
64840;SPS30;51307;52.162;7.560;2022-09-17T04:32:54;6.50;5.72;4.16;2.11;17.19;17.11;16.72;14.61;9.73;0.99
64840;SPS30;51307;52.162;7.560;2022-09-17T04:35:19;6.54;5.76;4.20;2.15;17.51;17.43;17.04;14.93;10.01;0.98
64840;SPS30;51307;52.162;7.560;2022-09-17T04:37:50;6.05;5.33;3.90;2.03;16.51;16.43;16.08;14.15;9.57;0.96
64840;SPS30;51307;52.162;7.560;2022-09-17T04:40:18;5.63;4.98;3.68;1.96;15.95;15.89;15.56;13.80;9.50;0.94
64840;SPS30;51307;52.162;7.560;2022-09-17T04:42:44;5.57;4.92;3.62;1.92;15.57;15.50;15.18;13.43;9.19;0.95
64840;SPS30;51307;52.162;7.560;2022-09-17T04:45:09;6.39;5.63;4.12;2.13;17.34;17.26;16.89;14.84;10.01;0.97
64840;SPS30;51307;52.162;7.560;2022-09-17T04:47:37;6.16;5.43;3.98;2.08;16.92;16.84;16.48;14.52;9.85;0.98
64840;SPS30;51307;52.162;7.560;2022-09-17T04:50:03;6.03;5.32;3.91;2.06;16.78;16.70;16.35;14.45;9.87;0.98
64840;SPS30;51307;52.162;7.560;2022-09-17T04:52:29;5.36;4.74;3.50;1.87;15.19;15.13;14.82;13.14;9.05;0.96
64840;SPS30;51307;52.162;7.560;2022-09-17T04:54:55;5.56;4.92;3.64;1.95;15.82;15.75;15.43;13.70;9.44;0.95
64840;SPS30;51307;52.162;7.560;2022-09-17T04:57:20;6.48;5.71;4.18;2.18;17.69;17.61;17.23;15.17;10.27;0.96
64840;SPS30;51307;52.162;7.560;2022-09-17T04:59:47;6.15;5.41;3.92;1.97;16.06;15.99;15.62;13.61;9.01;0.99
64840;SPS30;51307;52.162;7.560;2022-09-17T05:02:13;6.34;5.57;4.01;1.99;16.22;16.14;15.76;13.67;8.95;1.01
64840;SPS30;51307;52.162;7.560;2022-09-17T05:04:38;6.30;5.53;4.00;2.00;16.28;16.20;15.82;13.75;9.05;1.00
64840;SPS30;51307;52.162;7.560;2022-09-17T05:07:04;7.17;6.29;4.54;2.26;18.43;18.34;17.90;15.55;10.21;1.01
64840;SPS30;51307;52.162;7.560;2022-09-17T05:09:29;5.79;5.09;3.68;1.84;15.02;14.95;14.60;12.70;8.38;1.00
64840;SPS30;51307;52.162;7.560;2022-09-17T05:11:55;6.25;5.48;3.95;1.96;15.98;15.90;15.52;13.46;8.81;1.01
64840;SPS30;51307;52.162;7.560;2022-09-17T05:14:20;6.62;5.82;4.24;2.17;17.66;17.57;17.18;15.04;10.07;0.99
64840;SPS30;51307;52.162;7.560;2022-09-17T05:16:46;5.54;4.90;3.62;1.92;15.64;15.57;15.25;13.51;9.28;0.96
64840;SPS30;51307;52.162;7.560;2022-09-17T05:19:11;6.02;5.30;3.88;2.01;16.34;16.27;15.92;13.99;9.45;0.99
64840;SPS30;51307;52.162;7.560;2022-09-17T05:21:37;5.72;5.04;3.68;1.90;15.43;15.36;15.02;13.19;8.87;1.00
64840;SPS30;51307;52.162;7.560;2022-09-17T05:24:02;6.41;5.65;4.13;2.14;17.42;17.34;16.97;14.92;10.08;0.99
64840;SPS30;51307;52.162;7.560;2022-09-17T05:26:28;6.08;5.36;3.91;2.01;16.39;16.31;15.95;14.00;9.42;0.99
64840;SPS30;51307;52.162;7.560;2022-09-17T05:28:54;5.39;4.76;3.49;1.83;14.88;14.82;14.50;12.79;8.70;0.99
64840;SPS30;51307;52.162;7.560;2022-09-17T05:31:19;5.52;4.87;3.57;1.87;15.17;15.11;14.78;13.03;8.84;0.99
64840;SPS30;51307;52.162;7.560;2022-09-17T05:33:45;5.85;5.16;3.77;1.95;15.88;15.81;15.47;13.59;9.17;1.00
64840;SPS30;51307;52.162;7.560;2022-09-17T05:36:10;4.91;4.34;3.20;1.70;13.83;13.77;13.49;11.95;8.20;0.97
64840;SPS30;51307;52.162;7.560;2022-09-17T05:38:36;5.61;4.97;3.70;2.01;16.31;16.24;15.92;14.19;9.87;0.95
64840;SPS30;51307;52.162;7.560;2022-09-17T05:41:03;5.59;4.95;3.66;1.96;15.93;15.86;15.54;13.80;9.52;0.96
64840;SPS30;51307;52.162;7.560;2022-09-17T05:43:30;4.92;4.34;3.20;1.69;13.75;13.69;13.41;11.86;8.11;0.96
64840;SPS30;51307;52.162;7.560;2022-09-17T05:45:59;4.83;4.27;3.17;1.71;13.90;13.84;13.56;12.07;8.36;0.96
64840;SPS30;51307;52.162;7.560;2022-09-17T05:48:25;5.22;4.61;3.39;1.79;14.53;14.47;14.16;12.52;8.55;0.97
64840;SPS30;51307;52.162;7.560;2022-09-17T05:50:51;5.52;4.87;3.56;1.85;15.07;15.00;14.68;12.92;8.74;0.98
64840;SPS30;51307;52.162;7.560;2022-09-17T05:53:19;5.26;4.64;3.39;1.75;14.26;14.19;13.88;12.19;8.22;0.99
64840;SPS30;51307;52.162;7.560;2022-09-17T05:55:44;5.61;4.94;3.60;1.85;15.01;14.94;14.61;12.80;8.58;1.00
64840;SPS30;51307;52.162;7.560;2022-09-17T05:58:10;5.57;4.92;3.61;1.89;15.39;15.32;15.00;13.23;9.00;0.98
64840;SPS30;51307;52.162;7.560;2022-09-17T06:00:38;5.19;4.57;3.34;1.74;14.13;14.07;13.76;12.11;8.19;0.99
64840;SPS30;51307;52.162;7.560;2022-09-17T06:03:05;5.12;4.53;3.35;1.80;14.64;14.58;14.29;12.69;8.77;0.96
64840;SPS30;51307;52.162;7.560;2022-09-17T06:05:32;5.43;4.80;3.56;1.91;15.53;15.46;15.15;13.47;9.31;0.97
64840;SPS30;51307;52.162;7.560;2022-09-17T06:07:57;5.10;4.51;3.34;1.80;14.60;14.54;14.25;12.66;8.76;0.96
64840;SPS30;51307;52.162;7.560;2022-09-17T06:10:23;4.99;4.42;3.28;1.78;14.45;14.39;14.11;12.57;8.73;0.95
64840;SPS30;51307;52.162;7.560;2022-09-17T06:12:53;5.34;4.73;3.52;1.91;15.51;15.45;15.14;13.50;9.39;0.96
64840;SPS30;51307;52.162;7.560;2022-09-17T06:15:20;4.81;4.26;3.16;1.70;13.84;13.78;13.51;12.02;8.33;0.95
64840;SPS30;51307;52.162;7.560;2022-09-17T06:17:45;5.03;4.45;3.27;1.73;14.05;13.99;13.70;12.11;8.28;0.96
64840;SPS30;51307;52.162;7.560;2022-09-17T06:20:11;5.14;4.54;3.35;1.78;14.44;14.37;14.08;12.46;8.54;0.96
64840;SPS30;51307;52.162;7.560;2022-09-17T06:22:36;5.57;4.92;3.61;1.90;15.41;15.35;15.02;13.26;9.03;0.98
64840;SPS30;51307;52.162;7.560;2022-09-17T06:25:02;5.78;5.09;3.70;1.89;15.41;15.34;14.99;13.13;8.78;0.98
64840;SPS30;51307;52.162;7.560;2022-09-17T06:27:31;6.18;5.45;4.00;2.08;16.94;16.86;16.50;14.53;9.85;0.97
64840;SPS30;51307;52.162;7.560;2022-09-17T06:29:57;5.27;4.67;3.46;1.87;15.21;15.14;14.84;13.21;9.16;0.96
64840;SPS30;51307;52.162;7.560;2022-09-17T06:32:23;5.16;4.55;3.34;1.75;14.24;14.17;13.87;12.24;8.32;0.99
64840;SPS30;51307;52.162;7.560;2022-09-17T06:34:49;5.32;4.69;3.42;1.76;14.29;14.22;13.91;12.19;8.18;0.98
64840;SPS30;51307;52.162;7.560;2022-09-17T06:37:14;5.31;4.68;3.42;1.78;14.48;14.42;14.10;12.41;8.40;0.97
64840;SPS30;51307;52.162;7.560;2022-09-17T06:39:40;5.19;4.56;3.30;1.65;13.47;13.41;13.09;11.40;7.53;1.00
64840;SPS30;51307;52.162;7.560;2022-09-17T06:42:05;6.25;5.47;3.93;1.92;15.62;15.54;15.15;13.08;8.46;1.02
64840;SPS30;51307;52.162;7.560;2022-09-17T06:44:31;6.02;5.26;3.75;1.79;14.57;14.49;14.12;12.09;7.67;1.03
64840;SPS30;51307;52.162;7.560;2022-09-17T06:46:57;5.70;4.99;3.57;1.73;14.10;14.03;13.68;11.77;7.57;1.02
64840;SPS30;51307;52.162;7.560;2022-09-17T06:49:22;6.26;5.48;3.93;1.91;15.54;15.46;15.08;12.99;8.36;1.02
64840;SPS30;51307;52.162;7.560;2022-09-17T06:51:48;5.82;5.10;3.67;1.80;14.68;14.61;14.25;12.32;8.01;1.02
64840;SPS30;51307;52.162;7.560;2022-09-17T06:54:13;5.04;4.41;3.16;1.53;12.48;12.42;12.11;10.42;6.71;1.02
64840;SPS30;51307;52.162;7.560;2022-09-17T06:56:39;5.11;4.48;3.23;1.59;12.98;12.91;12.60;10.91;7.11;1.00
64840;SPS30;51307;52.162;7.560;2022-09-17T06:59:04;5.10;4.47;3.23;1.61;13.11;13.05;12.74;11.07;7.27;1.00
64840;SPS30;51307;52.162;7.560;2022-09-17T07:01:30;5.29;4.67;3.42;1.79;14.52;14.45;14.14;12.46;8.45;0.96
64840;SPS30;51307;52.162;7.560;2022-09-17T07:03:56;4.81;4.24;3.12;1.64;13.32;13.26;12.98;11.46;7.81;0.96
64840;SPS30;51307;52.162;7.560;2022-09-17T07:06:22;4.84;4.27;3.13;1.63;13.28;13.22;12.93;11.39;7.72;0.97
64840;SPS30;51307;52.162;7.560;2022-09-17T07:08:47;4.68;4.11;2.98;1.51;12.26;12.20;11.92;10.39;6.90;0.98
64840;SPS30;51307;52.162;7.560;2022-09-17T07:11:13;4.43;3.89;2.82;1.42;11.54;11.48;11.22;9.77;6.46;1.00
64840;SPS30;51307;52.162;7.560;2022-09-17T07:13:40;4.84;4.25;3.08;1.56;12.68;12.62;12.33;10.76;7.14;1.00
64840;SPS30;51307;52.162;7.560;2022-09-17T07:16:06;5.12;4.50;3.27;1.66;13.50;13.44;13.14;11.47;7.64;1.00
64840;SPS30;51307;52.162;7.560;2022-09-17T07:18:32;4.84;4.24;3.05;1.50;12.22;12.16;11.87;10.26;6.67;1.02
64840;SPS30;51307;52.162;7.560;2022-09-17T07:20:59;5.01;4.40;3.17;1.57;12.76;12.69;12.39;10.73;7.01;1.02
64840;SPS30;51307;52.162;7.560;2022-09-17T07:23:27;5.36;4.70;3.39;1.68;13.67;13.61;13.28;11.51;7.52;1.02
64840;SPS30;51307;52.162;7.560;2022-09-17T07:25:55;5.34;4.70;3.40;1.71;13.94;13.87;13.55;11.81;7.82;1.01
64840;SPS30;51307;52.162;7.560;2022-09-17T07:28:23;4.79;4.21;3.05;1.53;12.49;12.43;12.14;10.58;7.00;1.02
64840;SPS30;51307;52.162;7.560;2022-09-17T07:30:50;4.78;4.20;3.06;1.57;12.74;12.68;12.40;10.86;7.26;1.02
64840;SPS30;51307;52.162;7.560;2022-09-17T07:33:18;4.35;3.83;2.79;1.44;11.70;11.64;11.39;9.99;6.71;1.02
64840;SPS30;51307;52.162;7.560;2022-09-17T07:35:57;5.05;4.45;3.26;1.69;13.73;13.67;13.37;11.76;7.94;1.02
64840;SPS30;51307;52.162;7.560;2022-09-17T07:38:25;4.47;3.95;2.90;1.53;12.44;12.39;12.13;10.72;7.32;1.01
64840;SPS30;51307;52.162;7.560;2022-09-17T07:40:55;4.94;4.35;3.18;1.64;13.37;13.31;13.02;11.44;7.71;1.02
64840;SPS30;51307;52.162;7.560;2022-09-17T07:43:26;3.73;3.29;2.42;1.27;10.31;10.26;10.05;8.86;6.03;1.00
64840;SPS30;51307;52.162;7.560;2022-09-17T07:45:55;3.80;3.35;2.47;1.30;10.59;10.55;10.33;9.13;6.24;0.98
64840;SPS30;51307;52.162;7.560;2022-09-17T07:48:22;4.06;3.58;2.63;1.39;11.26;11.21;10.98;9.70;6.61;0.99
64840;SPS30;51307;52.162;7.560;2022-09-17T07:50:48;4.51;3.98;2.92;1.52;12.39;12.34;12.08;10.64;7.23;0.98
64840;SPS30;51307;52.162;7.560;2022-09-17T07:53:14;4.57;4.04;2.97;1.57;12.72;12.67;12.40;10.96;7.48;0.98
64840;SPS30;51307;52.162;7.560;2022-09-17T07:55:40;4.51;3.98;2.93;1.55;12.58;12.52;12.26;10.84;7.41;0.97
64840;SPS30;51307;52.162;7.560;2022-09-17T07:58:06;4.52;3.99;2.94;1.56;12.67;12.62;12.36;10.94;7.49;0.95
64840;SPS30;51307;52.162;7.560;2022-09-17T08:00:32;4.45;3.91;2.85;1.45;11.78;11.72;11.46;10.01;6.68;0.97
64840;SPS30;51307;52.162;7.560;2022-09-17T08:02:58;4.26;3.76;2.74;1.42;11.54;11.49;11.24;9.87;6.65;0.96
64840;SPS30;51307;52.162;7.560;2022-09-17T08:05:24;4.30;3.78;2.74;1.38;11.26;11.21;10.95;9.55;6.33;0.98
64840;SPS30;51307;52.162;7.560;2022-09-17T08:07:50;4.76;4.19;3.04;1.55;12.60;12.54;12.25;10.71;7.14;0.99
64840;SPS30;51307;52.162;7.560;2022-09-17T08:10:17;4.61;4.05;2.95;1.51;12.26;12.20;11.93;10.44;6.98;0.98
64840;SPS30;51307;52.162;7.560;2022-09-17T08:12:53;4.34;3.83;2.81;1.48;11.99;11.94;11.68;10.31;7.01;0.96
64840;SPS30;51307;52.162;7.560;2022-09-17T08:15:21;5.53;4.87;3.54;1.81;14.74;14.67;14.34;12.56;8.40;0.99
64840;SPS30;51307;52.162;7.560;2022-09-17T08:17:47;4.30;3.80;2.80;1.49;12.07;12.02;11.77;10.42;7.14;0.96
64840;SPS30;51307;52.162;7.560;2022-09-17T08:20:14;4.23;3.75;2.77;1.50;12.14;12.09;11.85;10.53;7.29;0.95
64840;SPS30;51307;52.162;7.560;2022-09-17T08:22:40;4.37;3.86;2.84;1.50;12.17;12.12;11.87;10.49;7.17;0.97
64840;SPS30;51307;52.162;7.560;2022-09-17T08:25:07;4.65;4.10;3.01;1.57;12.80;12.74;12.47;10.99;7.47;0.97
64840;SPS30;51307;52.162;7.560;2022-09-17T08:27:34;4.68;4.13;3.03;1.58;12.85;12.79;12.52;11.03;7.49;1.00
64840;SPS30;51307;52.162;7.560;2022-09-17T08:29:59;4.87;4.29;3.12;1.59;12.92;12.86;12.57;10.99;7.34;1.02
64840;SPS30;51307;52.162;7.560;2022-09-17T08:32:28;4.94;4.35;3.16;1.61;13.10;13.04;12.74;11.14;7.43;1.02
64840;SPS30;51307;52.162;7.560;2022-09-17T08:34:54;4.47;3.94;2.88;1.50;12.16;12.11;11.85;10.42;7.04;1.02
64840;SPS30;51307;52.162;7.560;2022-09-17T08:37:20;4.91;4.31;3.12;1.58;12.83;12.77;12.47;10.87;7.20;1.03
64840;SPS30;51307;52.162;7.560;2022-09-17T08:39:45;4.75;4.16;3.00;1.49;12.15;12.09;11.80;10.24;6.71;1.03
64840;SPS30;51307;52.162;7.560;2022-09-17T08:44:42;3.71;3.26;2.37;1.20;9.80;9.75;9.53;8.33;5.55;1.02
64840;SPS30;51307;52.162;7.560;2022-09-17T08:47:13;4.35;3.83;2.81;1.47;11.96;11.90;11.65;10.27;6.97;0.99
64840;SPS30;51307;52.162;7.560;2022-09-17T09:00:48;3.87;3.40;2.47;1.25;10.20;10.15;9.92;8.66;5.76;1.00
64840;SPS30;51307;52.162;7.560;2022-09-17T09:06:13;3.44;3.04;2.24;1.19;9.70;9.66;9.46;8.38;5.76;0.96
64840;SPS30;51307;52.162;7.560;2022-09-17T09:11:16;3.23;2.85;2.09;1.10;8.95;8.91;8.72;7.70;5.25;0.97
64840;SPS30;51307;52.162;7.560;2022-09-17T09:13:52;3.47;3.06;2.25;1.19;9.64;9.60;9.40;8.30;5.66;0.96
64840;SPS30;51307;52.162;7.560;2022-09-17T09:16:30;3.71;3.26;2.38;1.21;9.87;9.83;9.61;8.41;5.62;0.98
64840;SPS30;51307;52.162;7.560;2022-09-17T09:22:05;3.19;2.80;2.02;1.01;8.23;8.19;8.00;6.95;4.57;0.99
64840;SPS30;51307;52.162;7.560;2022-09-17T09:24:45;3.01;2.65;1.93;0.99;8.05;8.01;7.83;6.86;4.59;0.97
64840;SPS30;51307;52.162;7.560;2022-09-17T09:27:45;3.14;2.76;2.01;1.03;8.41;8.37;8.19;7.18;4.82;0.96
64840;SPS30;51307;52.162;7.560;2022-09-17T09:30:42;3.22;2.84;2.09;1.10;8.95;8.91;8.72;7.70;5.26;0.93
64840;SPS30;51307;52.162;7.560;2022-09-17T09:33:14;2.91;2.56;1.88;0.99;8.01;7.97;7.80;6.88;4.68;0.93
64840;SPS30;51307;52.162;7.560;2022-09-17T09:35:49;2.96;2.59;1.87;0.92;7.51;7.47;7.29;6.31;4.11;0.98
64840;SPS30;51307;52.162;7.560;2022-09-17T09:43:47;2.91;2.56;1.87;0.96;7.82;7.78;7.61;6.68;4.49;0.97
64840;SPS30;51307;52.162;7.560;2022-09-17T09:54:27;2.66;2.37;1.77;0.98;7.96;7.93;7.78;6.98;4.91;0.94
64840;SPS30;51307;52.162;7.560;2022-09-17T09:57:08;3.06;2.72;2.04;1.13;9.16;9.12;8.95;8.02;5.65;0.94
64840;SPS30;51307;52.162;7.560;2022-09-17T09:59:39;2.67;2.37;1.78;0.99;8.01;7.98;7.83;7.02;4.95;0.95
64840;SPS30;51307;52.162;7.560;2022-09-17T10:02:07;2.20;1.95;1.46;0.81;6.54;6.51;6.39;5.72;4.02;0.95
64840;SPS30;51307;52.162;7.560;2022-09-17T10:04:34;1.58;1.40;1.06;0.60;4.84;4.82;4.73;4.26;3.03;0.92
64840;SPS30;51307;52.162;7.560;2022-09-17T10:07:00;1.73;1.54;1.17;0.67;5.40;5.38;5.29;4.78;3.42;0.91
64840;SPS30;51307;52.162;7.560;2022-09-17T10:09:31;1.91;1.70;1.29;0.73;5.93;5.91;5.81;5.24;3.74;0.92
64840;SPS30;51307;52.162;7.560;2022-09-17T10:14:38;1.84;1.64;1.25;0.72;5.81;5.79;5.70;5.15;3.71;0.91
64840;SPS30;51307;52.162;7.560;2022-09-17T10:19:43;1.73;1.54;1.16;0.66;5.31;5.29;5.20;4.68;3.33;0.92
64840;SPS30;51307;52.162;7.560;2022-09-17T10:22:31;1.63;1.45;1.09;0.60;4.91;4.89;4.80;4.30;3.03;0.93
64840;SPS30;51307;52.162;7.560;2022-09-17T10:25:00;1.95;1.74;1.30;0.72;5.85;5.83;5.72;5.13;3.62;0.93
64840;SPS30;51307;52.162;7.560;2022-09-17T10:27:29;1.65;1.46;1.09;0.60;4.84;4.82;4.73;4.22;2.95;0.94
64840;SPS30;51307;52.162;7.560;2022-09-17T10:30:13;1.66;1.48;1.10;0.61;4.95;4.93;4.84;4.33;3.05;0.93
64840;SPS30;51307;52.162;7.560;2022-09-17T10:32:41;1.70;1.51;1.13;0.63;5.08;5.06;4.96;4.45;3.13;0.93
64840;SPS30;51307;52.162;7.560;2022-09-17T10:37:43;1.79;1.59;1.20;0.67;5.46;5.44;5.35;4.81;3.42;0.91
64840;SPS30;51307;52.162;7.560;2022-09-17T10:42:43;1.33;1.18;0.88;0.48;3.92;3.91;3.83;3.43;2.40;0.94
64840;SPS30;51307;52.162;7.560;2022-09-17T10:45:24;1.97;1.75;1.30;0.70;5.70;5.67;5.56;4.95;3.43;0.96
64840;SPS30;51307;52.162;7.560;2022-09-17T10:47:53;1.30;1.15;0.85;0.45;3.65;3.63;3.56;3.15;2.16;0.97
64840;SPS30;51307;52.162;7.560;2022-09-17T10:50:26;2.15;1.90;1.39;0.73;5.95;5.92;5.80;5.12;3.48;0.98
64840;SPS30;51307;52.162;7.560;2022-09-17T10:52:59;1.89;1.66;1.22;0.63;5.15;5.13;5.02;4.41;2.99;0.98
64840;SPS30;51307;52.162;7.560;2022-09-17T10:55:40;2.33;2.06;1.51;0.79;6.40;6.37;6.24;5.49;3.73;0.98
64840;SPS30;51307;52.162;7.560;2022-09-17T11:01:09;1.45;1.28;0.94;0.50;4.04;4.02;3.94;3.48;2.38;0.97
64840;SPS30;51307;52.162;7.560;2022-09-17T11:03:52;1.61;1.43;1.06;0.58;4.68;4.66;4.56;4.07;2.83;0.94
64840;SPS30;51307;52.162;7.560;2022-09-17T11:18:18;1.96;1.74;1.28;0.69;5.58;5.55;5.44;4.83;3.32;0.96